Cody, WY

1:00 AM MDT on August 25, 2016 (GMT -0600)
HADS | | Change Station

Elev 4708 ft 44.79 °N, 109.18 °W | Updated 1 hour ago

Overcast
Overcast
0.0 °F
Feels Like -10 °F
N
5.0
Wind Variable Wind from ENE
Gusts 7.0 mph

Today
High -- | Low -- °F
--% Chance of Precip.
Yesterday
High -- | Low -- °F
Precip. -- in
Pressure 30.36 in
Visibility 10.0 miles
Clouds Mostly Cloudy 4600 ft
Overcast 6000 ft
Windchill -10 °F
Dew Point Not available.
Humidity Not available.
Rainfall in
Snow Depth Not available.
6:31 AM 8:04 PM
Waning Gibbous, 48% visible
METAR KCOD 250655Z AUTO 33007KT 10SM BKN046 OVC060 10/05 A3036 RMK AO1
Pressure 30.36 in
Visibility 10.0 miles
Clouds Mostly Cloudy 4600 ft
Overcast 6000 ft
Windchill -10 °F
Dew Point Not available.
Humidity Not available.
Rainfall in
Snow Depth Not available.
6:31 AM 8:04 PM
Waning Gibbous, 48% visible
METAR KCOD 250655Z AUTO 33007KT 10SM BKN046 OVC060 10/05 A3036 RMK AO1

10-Day Weather Forecast

Almanac

Astronomy

Aug. 25, 2016 Rise Set
Actual Time
Civil Twilight
Nautical Twilight
Astronomical Twilight
Moon
Length of Visible Light
Length of Day
Tomorrow will be .
, % of the Moon is Illuminated

Today's Extremes

State Highs State Lows

Community

WunderPhotos

Upload Photos

1,934,803 photos uploaded!

WunderBlog® & News

Nearby

Air Quality

  Air Quality AQ Index Pollutant
Not available.

Snow Depth

Station Depth Elevation

Earthquake Activity

City Distance Mag. Time & Date
Minimum magnitude displayed is 2.5.

Coastal Water Temperatures

Place Temperature

Stations

Nearby Weather Stations

Station Location Temp. Windchill Dew Point Humidity Wind Precip. Elev Updated Type
                   

Watches & Warnings

There are currently no watches in effect.